< < Back
Terminal Aerodrome Forecast


Current Version              Previous Versions:   1  2  3  4  5  6  7  8  9  

Terminal Aerodrome Forecast

638
FTUS42 KJAX 271100
TAFSSI
TAF
KSSI 271121Z 2712/2812 24006KT P6SM SKC WS010/27035KT
     FM271400 29014G22KT P6SM FEW030
     FM272300 31006KT P6SM SKC=

Latest METAR

576
SAUS70 KWBC 280700
MTRSSI
METAR KSSI 280653Z AUTO 33007KT 10SM CLR 04/M01 A3033 RMK AO2 SLP270
T00441006


USA.gov is the U.S. government's official web portal to all federal, state and local government web resources and services.